Time;durP1;ratioP1;P1;durP2;ratioP2;P2;SDS_P1;SDS_P2;PMS_P1;PMS_P2;Temp;Humidity;BMP_temperature;BMP_pressure;BME280_temperature;BME280_humidity;BME280_pressure;Samples;Min_cycle;Max_cycle;Signal;HPM_P1;HPM_P2
2023/04/25 00:02:41;;;;;;;15.80;4.55;;;8.10;83.80;;;;;;5890521;23;85668;-81
2023/04/25 00:05:29;;;;;;;17.73;4.70;;;8.10;84.40;;;;;;5912088;23;85195;-81
2023/04/25 00:07:55;;;;;;;11.45;4.50;;;8.10;84.30;;;;;;5915524;23;85733;-83
2023/04/25 00:10:46;;;;;;;18.42;4.40;;;8.10;84.80;;;;;;5909086;23;87721;-84
2023/04/25 00:13:34;;;;;;;17.20;4.20;;;8.10;84.80;;;;;;5891852;23;84989;-82
2023/04/25 00:16:20;;;;;;;17.13;5.30;;;8.10;85.00;;;;;;5905602;23;85211;-82
2023/04/25 00:18:51;;;;;;;23.55;5.50;;;8.10;84.70;;;;;;5859570;23;88131;-81
2023/04/25 00:21:35;;;;;;;19.27;4.82;;;8.10;85.30;;;;;;5886146;23;85238;-82
2023/04/25 00:54:09;;;;;;;22.75;5.40;;;7.90;87.20;;;;;;6239752;22;84880;-83
2023/04/25 00:57:14;;;;;;;23.55;5.38;;;7.90;87.10;;;;;;6015070;23;84983;-83
2023/04/25 01:00:20;;;;;;;26.40;5.97;;;7.90;87.70;;;;;;5958896;23;85195;-81
2023/04/25 01:03:28;;;;;;;25.48;5.30;;;7.90;88.20;;;;;;5875786;23;85951;-81
2023/04/25 01:06:32;;;;;;;11.15;4.28;;;7.90;87.80;;;;;;5820914;24;85380;-82
2023/04/25 01:09:40;;;;;;;30.67;5.82;;;7.90;88.10;;;;;;5794713;24;85014;-82
2023/04/25 01:12:46;;;;;;;21.23;4.93;;;7.90;87.70;;;;;;5689627;24;85535;-81
2023/04/25 01:15:33;;;;;;;24.65;5.05;;;7.80;88.00;;;;;;5614145;25;85415;-83
2023/04/25 01:18:33;;;;;;;22.90;4.70;;;7.80;87.40;;;;;;5589484;25;86675;-83
2023/04/25 01:21:43;;;;;;;21.63;4.20;;;7.80;87.90;;;;;;5515144;25;85002;-81
2023/04/25 01:24:40;;;;;;;14.30;5.10;;;7.80;87.50;;;;;;5416462;25;85934;-81
2023/04/25 01:27:30;;;;;;;18.45;4.57;;;7.80;87.60;;;;;;5438145;25;85890;-82
2023/04/25 01:29:59;;;;;;;18.88;5.32;;;7.80;87.30;;;;;;5414559;26;88930;-82
2023/04/25 01:33:05;;;;;;;25.92;5.15;;;7.80;88.00;;;;;;5389902;25;86725;-82
2023/04/25 01:36:18;;;;;;;15.07;4.82;;;7.80;87.50;;;;;;5466368;25;86405;-81
2023/04/25 01:39:29;;;;;;;23.67;5.03;;;7.80;87.70;;;;;;5509198;25;86207;-82
2023/04/25 01:42:57;;;;;;;24.73;4.82;;;7.70;88.10;;;;;;5440630;25;88077;-84
2023/04/25 01:46:03;;;;;;;15.10;4.85;;;7.70;89.20;;;;;;5468308;25;87596;-82
2023/04/25 01:48:29;;;;;;;25.27;5.43;;;7.70;88.90;;;;;;5462480;25;86200;-82
2023/04/25 01:51:52;;;;;;;22.80;5.05;;;7.70;88.60;;;;;;5455686;25;87642;-83
2023/04/25 01:55:24;;;;;;;22.70;4.63;;;7.70;88.60;;;;;;5787927;22;88573;31
2023/04/25 01:57:56;;;;;;;25.52;5.82;;;7.70;89.70;;;;;;6100289;23;87451;-82
2023/04/25 02:01:30;;;;;;;15.98;4.90;;;7.70;89.50;;;;;;5932656;23;86868;-82
2023/04/25 02:04:19;;;;;;;24.63;4.90;;;7.60;89.90;;;;;;5956195;23;86012;-81
2023/04/25 02:07:54;;;;;;;27.83;5.07;;;7.60;89.90;;;;;;5887600;23;91565;-84
2023/04/25 02:11:03;;;;;;;22.35;5.10;;;7.60;89.90;;;;;;5759718;24;90556;-80
2023/04/25 02:14:12;;;;;;;19.20;4.78;;;7.60;90.00;;;;;;5819427;24;87582;-82
2023/04/25 02:17:21;;;;;;;17.73;5.22;;;7.60;90.40;;;;;;5671427;24;87017;-82
2023/04/25 02:20:34;;;;;;;26.63;5.90;;;7.60;90.40;;;;;;5636563;24;88736;-81
2023/04/25 02:23:21;;;;;;;22.42;6.78;;;7.50;90.20;;;;;;5653178;24;86791;-81
2023/04/25 02:26:13;;;;;;;22.50;5.35;;;7.50;90.30;;;;;;5686359;24;86821;-83
2023/04/25 02:28:40;;;;;;;31.67;6.10;;;7.50;90.30;;;;;;5651970;24;87667;-81
2023/04/25 02:31:30;;;;;;;17.52;5.07;;;7.50;90.40;;;;;;5630009;25;88034;-81
2023/04/25 02:41:51;;;;;;;19.65;6.25;;;7.50;90.70;;;;;;5605152;24;86297;-83
2023/04/25 02:45:00;;;;;;;16.33;4.75;;;7.50;90.50;;;;;;5687111;24;88129;-82
2023/04/25 02:48:12;;;;;;;25.73;5.78;;;7.50;90.70;;;;;;5652297;24;87614;-81
2023/04/25 02:51:04;;;;;;;22.60;6.20;;;7.50;91.10;;;;;;5681451;24;86740;-82
2023/04/25 02:53:31;;;;;;;21.23;6.10;;;7.50;91.10;;;;;;5663387;24;88639;-80
2023/04/25 02:56:25;;;;;;;21.15;5.38;;;7.50;91.20;;;;;;5672849;24;87386;-81
2023/04/25 02:59:24;;;;;;;17.10;5.43;;;7.40;91.30;;;;;;5721052;24;87632;-81
2023/04/25 03:02:11;;;;;;;24.00;5.65;;;7.40;91.10;;;;;;5785905;24;86602;-82
2023/04/25 03:05:03;;;;;;;29.05;6.72;;;7.40;91.40;;;;;;5709295;24;88452;-80
2023/04/25 03:07:31;;;;;;;23.55;6.38;;;7.40;91.20;;;;;;5669275;24;86642;-81
2023/04/25 03:11:03;;;;;;;18.00;5.57;;;7.40;91.10;;;;;;5663237;24;87096;-81
2023/04/25 03:13:54;;;;;;;20.02;5.50;;;7.40;91.30;;;;;;5610644;25;87940;-81
2023/04/25 03:17:28;;;;;;;23.65;7.10;;;7.40;91.20;;;;;;5636431;24;86461;-81
2023/04/25 03:20:20;;;;;;;23.83;6.10;;;7.30;91.20;;;;;;5571121;25;89257;-82
2023/04/25 03:22:53;;;;;;;17.77;5.65;;;7.30;91.30;;;;;;5544960;25;87176;-81
2023/04/25 03:25:40;;;;;;;27.47;7.23;;;7.30;91.60;;;;;;5644190;24;86296;-80
2023/04/25 03:28:06;;;;;;;24.45;7.25;;;7.30;91.60;;;;;;5640350;24;90105;-82
2023/04/25 03:30:37;;;;;;;22.83;5.65;;;7.30;91.70;;;;;;5660710;25;87135;-81
2023/04/25 03:33:03;;;;;;;25.67;6.55;;;7.20;91.80;;;;;;5661014;24;89177;-82
2023/04/25 03:35:52;;;;;;;24.30;7.53;;;7.30;91.90;;;;;;5657542;24;86312;-81
2023/04/25 03:38:18;;;;;;;22.73;6.50;;;7.30;92.40;;;;;;5724373;24;88938;-81
2023/04/25 03:40:45;;;;;;;21.02;6.65;;;7.30;92.40;;;;;;5703183;24;91252;-82
2023/04/25 03:43:11;;;;;;;32.38;7.20;;;7.30;92.20;;;;;;5716622;24;90206;-81
2023/04/25 03:45:37;;;;;;;23.33;7.78;;;7.30;92.10;;;;;;5758074;24;86188;-81
2023/04/25 03:48:08;;;;;;;22.60;6.55;;;7.30;92.10;;;;;;5737623;24;88463;-81
2023/04/25 03:50:56;;;;;;;21.52;6.00;;;7.30;92.10;;;;;;5800186;24;86938;-81
2023/04/25 03:53:29;;;;;;;23.85;6.40;;;7.20;91.80;;;;;;5821727;24;88991;-82
2023/04/25 03:56:40;;;;;;;26.58;7.28;;;7.20;91.80;;;;;;5817321;24;86891;-83
2023/04/25 03:59:27;;;;;;;33.85;8.27;;;7.20;92.10;;;;;;5810706;23;85854;-84
2023/04/25 04:02:16;;;;;;;31.15;7.03;;;7.20;92.10;;;;;;5800008;23;88748;-84
2023/04/25 04:05:06;;;;;;;24.85;5.90;;;7.20;92.00;;;;;;5871021;23;87697;-81
2023/04/25 04:07:52;;;;;;;24.65;6.78;;;7.20;92.00;;;;;;5780668;24;87736;-82
2023/04/25 04:10:38;;;;;;;27.15;7.00;;;7.20;92.00;;;;;;5815556;24;86847;-81
2023/04/25 04:13:30;;;;;;;21.95;7.47;;;7.20;92.00;;;;;;5752506;24;91323;-81
2023/04/25 04:16:36;;;;;;;22.58;7.32;;;7.20;92.00;;;;;;5790559;23;92039;-83
2023/04/25 04:19:42;;;;;;;28.42;7.05;;;7.20;92.40;;;;;;5638568;24;87352;-81
2023/04/25 04:22:34;;;;;;;23.02;6.88;;;7.20;92.40;;;;;;5721855;24;86724;-82
2023/04/25 04:25:24;;;;;;;23.50;8.25;;;7.20;92.50;;;;;;5728483;24;91323;-83
2023/04/25 04:28:29;;;;;;;24.08;7.43;;;7.20;92.60;;;;;;5772120;24;86718;-84
2023/04/25 04:31:19;;;;;;;28.52;8.77;;;7.20;92.30;;;;;;5800172;24;88025;-83
2023/04/25 04:34:26;;;;;;;22.80;6.97;;;7.10;92.10;;;;;;5809982;24;86347;-86
2023/04/25 04:36:55;;;;;;;23.15;7.20;;;7.00;91.70;;;;;;5762885;24;93853;-89
2023/04/25 04:39:22;;;;;;;24.92;7.20;;;7.00;92.00;;;;;;5737019;24;87701;-85
2023/04/25 04:42:08;;;;;;;20.52;5.10;;;7.00;91.20;;;;;;5763564;24;86331;-89
2023/04/25 04:44:35;;;;;;;20.60;5.43;;;7.00;90.90;;;;;;5741579;24;86946;-86
2023/04/25 04:47:06;;;;;;;16.08;4.82;;;6.90;91.20;;;;;;5745410;24;88448;-84
2023/04/25 04:49:35;;;;;;;19.02;4.28;;;7.00;90.70;;;;;;5794261;24;87492;-84
2023/04/25 04:59:07;;;;;;;16.23;5.15;;;6.90;91.10;;;;;;5846679;24;90739;-89
2023/04/25 05:01:37;;;;;;;13.23;4.95;;;6.90;90.70;;;;;;5831901;24;87724;-83
2023/04/25 05:04:24;;;;;;;16.10;4.65;;;7.00;91.50;;;;;;5792094;24;88077;-85
2023/04/25 05:07:13;;;;;;;21.30;5.38;;;6.90;90.40;;;;;;5789090;24;89952;-82
2023/04/25 05:09:41;;;;;;;24.08;5.13;;;6.90;90.60;;;;;;5741850;24;90551;-86
2023/04/25 05:18:52;;;;;;;17.23;4.43;;;7.00;90.80;;;;;;5751560;24;87484;-87
2023/04/25 05:21:21;;;;;;;17.90;5.22;;;7.00;90.60;;;;;;5744425;24;87133;-84
2023/04/25 05:27:02;;;;;;;15.10;4.32;;;7.00;90.60;;;;;;6229566;22;86280;-82
2023/04/25 05:32:25;;;;;;;14.75;4.53;;;7.00;91.20;;;;;;6214185;22;88099;-83
2023/04/25 05:35:40;;;;;;;16.55;4.82;;;7.00;91.10;;;;;;6189805;22;87634;-85
2023/04/25 05:41:38;;;;;;;22.83;5.97;;;7.10;91.60;;;;;;6226412;22;88455;-84
2023/04/25 05:44:29;;;;;;;18.58;4.95;;;7.10;91.10;;;;;;6253250;22;86670;-84
2023/04/25 05:56:16;;;;;;;14.40;5.47;;;7.30;90.40;;;;;;6220720;22;86529;-82
2023/04/25 05:59:06;;;;;;;15.68;5.22;;;7.40;91.50;;;;;;6100025;23;87477;-79
2023/04/25 06:01:32;;;;;;;16.80;4.97;;;7.50;90.70;;;;;;6010249;23;88012;-79
2023/04/25 06:04:02;;;;;;;20.48;5.43;;;7.50;90.90;;;;;;6035066;23;87151;-80
2023/04/25 06:06:34;;;;;;;14.55;4.85;;;7.50;89.50;;;;;;5981918;23;89634;-80
2023/04/25 06:09:01;;;;;;;15.25;5.00;;;7.50;89.40;;;;;;6004712;23;88004;-81
2023/04/25 06:11:30;;;;;;;20.15;5.60;;;7.50;90.40;;;;;;6006554;23;86349;-80
2023/04/25 06:13:58;;;;;;;17.80;5.63;;;7.60;90.30;;;;;;5982202;23;90025;-80
2023/04/25 06:16:34;;;;;;;24.65;5.50;;;7.60;90.60;;;;;;5985160;23;89461;-81
2023/04/25 06:19:01;;;;;;;16.60;4.82;;;7.70;90.90;;;;;;5950645;23;93691;-81
2023/04/25 06:21:47;;;;;;;19.42;4.93;;;7.80;89.30;;;;;;5962546;23;86876;-80
2023/04/25 06:24:12;;;;;;;24.75;5.47;;;7.70;87.80;;;;;;5953489;23;89657;-80
2023/04/25 06:27:22;;;;;;;18.35;4.13;;;7.80;88.60;;;;;;6139290;22;89397;-81
2023/04/25 06:30:29;;;;;;;21.30;5.47;;;7.80;87.20;;;;;;6033548;23;87887;-81
2023/04/25 06:34:13;;;;;;;15.88;5.35;;;7.80;87.70;;;;;;5985267;23;86729;-81
2023/04/25 07:00:05;;;;;;;14.23;4.60;;;8.00;86.00;;;;;;6171023;22;88715;-77
2023/04/25 07:02:31;;;;;;;18.27;4.68;;;8.00;87.30;;;;;;6165933;22;89921;-79
2023/04/25 07:04:59;;;;;;;24.00;5.32;;;8.10;87.50;;;;;;6180574;22;86814;-82
2023/04/25 07:07:26;;;;;;;21.55;5.68;;;8.10;86.80;;;;;;6162872;22;87662;-80
2023/04/25 07:09:55;;;;;;;20.40;5.75;;;8.10;87.40;;;;;;6132756;22;92994;-80
2023/04/25 07:12:44;;;;;;;25.77;6.45;;;8.10;87.80;;;;;;6150071;22;90793;-79
2023/04/25 07:15:30;;;;;;;15.45;5.20;;;8.20;86.80;;;;;;6215041;22;87549;-79
2023/04/25 07:17:56;;;;;;;22.25;5.60;;;8.20;86.80;;;;;;6208540;22;88267;-78
2023/04/25 07:21:08;;;;;;;14.52;5.10;;;8.30;87.20;;;;;;6237637;22;89767;-81
2023/04/25 07:24:15;;;;;;;19.88;5.85;;;8.40;85.90;;;;;;6152359;22;87375;-79
2023/04/25 07:27:08;;;;;;;20.83;6.25;;;8.50;85.40;;;;;;5954939;23;86141;-81
2023/04/25 07:29:54;;;;;;;21.40;7.93;;;8.70;85.70;;;;;;5943695;23;86679;-81
2023/04/25 07:32:26;;;;;;;22.95;6.82;;;8.80;87.00;;;;;;5799027;24;89924;-82
2023/04/25 07:37:45;;;;;;;31.13;6.70;;;9.00;85.00;;;;;;6191661;22;88638;-82
2023/04/25 07:40:11;;;;;;;25.52;7.20;;;9.10;84.40;;;;;;6204107;22;88318;-82
2023/04/25 07:42:57;;;;;;;27.58;7.70;;;9.20;84.60;;;;;;6159150;22;86820;-81
2023/04/25 07:45:46;;;;;;;17.42;7.25;;;9.30;80.70;;;;;;6115201;23;86660;-82
2023/04/25 07:55:30;;;;;;;30.02;6.38;;;9.40;82.10;;;;;;6068849;23;86896;-81
2023/04/25 07:58:13;;;;;;;26.05;6.60;;;9.60;80.80;;;;;;6009119;23;90701;-81
2023/04/25 08:01:21;;;;;;;30.90;8.65;;;9.70;79.50;;;;;;5946622;23;87048;-84
2023/04/25 08:03:48;;;;;;;35.40;12.57;;;9.70;74.60;;;;;;5911647;23;86730;-80
2023/04/25 08:06:17;;;;;;;29.55;9.85;;;9.60;77.70;;;;;;5928857;23;89448;-82
2023/04/25 08:08:48;;;;;;;33.28;10.20;;;9.40;77.30;;;;;;5871508;23;88911;-81
2023/04/25 08:11:37;;;;;;;20.52;6.43;;;9.40;77.80;;;;;;5905539;23;86279;-82
2023/04/25 08:14:07;;;;;;;24.08;7.93;;;9.40;75.50;;;;;;5915650;23;88650;-83
2023/04/25 08:16:55;;;;;;;21.45;7.82;;;9.40;79.00;;;;;;5886711;23;91323;-81
2023/04/25 08:19:27;;;;;;;19.30;5.55;;;9.50;78.80;;;;;;5963661;23;87703;-81
2023/04/25 08:21:56;;;;;;;24.17;4.90;;;9.40;75.60;;;;;;5986257;23;86022;-81
2023/04/25 08:25:06;;;;;;;19.27;4.85;;;9.40;74.90;;;;;;5970019;23;86948;-82
2023/04/25 08:27:36;;;;;;;15.20;4.15;;;9.40;74.90;;;;;;5946875;23;88010;-82
2023/04/25 08:30:28;;;;;;;13.45;4.30;;;9.50;74.60;;;;;;5919174;23;87304;-81
2023/04/25 08:32:58;;;;;;;14.68;3.00;;;9.50;72.50;;;;;;5854675;23;86925;-81
2023/04/25 08:35:24;;;;;;;10.18;2.80;;;9.70;74.30;;;;;;5896662;23;87987;-80
2023/04/25 08:37:52;;;;;;;14.68;3.30;;;10.00;71.80;;;;;;5917054;23;87182;-80
2023/04/25 08:40:25;;;;;;;9.95;2.60;;;10.20;73.00;;;;;;5952337;23;89497;-81
2023/04/25 08:43:15;;;;;;;7.43;2.67;;;10.40;70.00;;;;;;5967897;23;87900;-81
2023/04/25 08:46:17;;;;;;;10.70;2.77;;;10.60;66.80;;;;;;5904908;23;89970;-80
2023/04/25 08:49:11;;;;;;;15.75;3.03;;;10.50;66.90;;;;;;5894865;23;89466;-82
2023/04/25 08:51:50;;;;;;;6.05;2.35;;;10.40;64.90;;;;;;5851928;23;86717;-81
2023/04/25 08:54:37;;;;;;;14.57;2.90;;;10.20;65.10;;;;;;5877536;23;87238;-81
2023/04/25 08:57:27;;;;;;;20.45;3.85;;;10.00;67.00;;;;;;5825785;23;87936;-81
2023/04/25 09:00:14;;;;;;;12.27;2.85;;;9.90;68.90;;;;;;5816995;23;87148;-81
2023/04/25 09:03:29;;;;;;;13.85;2.83;;;9.80;69.40;;;;;;5814810;23;88851;-81
2023/04/25 09:06:20;;;;;;;10.68;3.30;;;9.80;71.10;;;;;;5872280;23;86155;-81
2023/04/25 09:09:13;;;;;;;14.95;3.75;;;9.80;70.60;;;;;;5796863;23;87675;-80
2023/04/25 09:12:08;;;;;;;15.23;3.53;;;9.60;69.80;;;;;;5828325;22;89316;-79
2023/04/25 09:15:15;;;;;;;15.45;3.20;;;9.50;70.70;;;;;;6214532;22;87645;-80
2023/04/25 09:17:44;;;;;;;16.52;3.42;;;9.40;69.10;;;;;;6181410;22;87366;-78
2023/04/25 09:20:12;;;;;;;8.20;2.17;;;9.40;70.50;;;;;;6189409;22;87860;-79
2023/04/25 09:22:38;;;;;;;13.05;2.00;;;9.40;63.80;;;;;;6169215;22;90035;-80
2023/04/25 09:25:09;;;;;;;15.52;2.70;;;9.40;63.40;;;;;;6172852;22;90240;-80
2023/04/25 09:43:50;;;;;;;11.00;2.90;;;10.40;61.90;;;;;;6197847;22;88111;-80
2023/04/25 09:49:07;;;;;;;11.18;2.80;;;10.90;62.70;;;;;;6205065;22;89326;-80
2023/04/25 09:52:00;;;;;;;9.95;2.10;;;11.20;64.60;;;;;;6214149;22;87061;-81
2023/04/25 09:54:28;;;;;;;9.65;2.03;;;11.70;60.10;;;;;;6096273;23;88019;-80
2023/04/25 09:57:12;;;;;;;7.82;1.98;;;12.00;58.70;;;;;;6144861;22;89498;-80
2023/04/25 09:59:44;;;;;;;;;;;12.20;59.20;;;;;;6242129;22;88751;-80
2023/04/25 10:02:30;;;;;;;12.15;2.63;;;12.60;58.80;;;;;;6180268;22;86679;-80
2023/04/25 10:05:18;;;;;;;6.22;2.17;;;13.10;56.40;;;;;;6114572;23;87277;-80
2023/04/25 10:07:47;;;;;;;8.65;2.00;;;13.60;61.30;;;;;;6123426;23;91576;-80
2023/04/25 10:14:12;;;;;;;9.93;1.92;;;13.40;52.10;;;;;;6174880;22;87103;-81
2023/04/25 10:16:59;;;;;;;8.30;2.75;;;13.10;53.20;;;;;;6178385;22;88118;-80
2023/04/25 10:22:37;;;;;;;;;;;13.10;55.70;;;;;;6145178;22;88114;-79
2023/04/25 10:25:06;;;;;;;7.68;1.88;;;12.90;55.80;;;;;;6224733;22;87791;-80
2023/04/25 10:38:16;;;;;;;6.55;1.90;;;12.20;57.50;;;;;;6226688;22;88664;-79
2023/04/25 10:41:10;;;;;;;13.65;2.60;;;12.00;54.40;;;;;;6086907;23;88937;-79
2023/04/25 10:43:37;;;;;;;10.82;2.60;;;11.60;61.10;;;;;;6074605;23;94731;-79
2023/04/25 10:46:32;;;;;;;14.32;2.15;;;11.50;62.00;;;;;;6038326;23;86984;-78
2023/04/25 10:48:59;;;;;;;9.68;2.40;;;11.60;63.40;;;;;;6038313;23;90591;-79
2023/04/25 10:51:32;;;;;;;8.07;1.95;;;11.80;64.50;;;;;;6038536;23;91613;-79
2023/04/25 10:54:07;;;;;;;4.93;1.33;;;12.20;62.90;;;;;;6015579;23;90424;-79
2023/04/25 10:56:35;;;;;;;6.30;1.23;;;12.10;58.60;;;;;;6038720;23;87569;-79
2023/04/25 10:59:24;;;;;;;5.38;1.10;;;12.00;59.50;;;;;;6038427;23;89456;-79
2023/04/25 11:01:54;;;;;;;8.60;1.70;;;12.30;60.50;;;;;;6012004;23;92307;-79
2023/04/25 11:04:36;;;;;;;9.05;2.83;;;12.70;58.60;;;;;;6016905;23;92279;-79
2023/04/25 11:07:05;;;;;;;5.65;1.35;;;12.70;56.50;;;;;;6037381;23;87053;-79
2023/04/25 11:09:33;;;;;;;13.18;3.70;;;12.70;56.50;;;;;;6038657;23;87874;-79
2023/04/25 11:12:00;;;;;;;5.75;2.03;;;12.90;54.70;;;;;;6037876;23;88694;-79
2023/04/25 11:14:26;;;;;;;5.85;2.00;;;12.90;54.10;;;;;;6037153;23;88308;-78
2023/04/25 11:16:58;;;;;;;9.35;2.20;;;12.90;54.50;;;;;;6052707;23;87582;-79
2023/04/25 11:19:25;;;;;;;8.20;2.47;;;13.30;54.10;;;;;;6100518;23;86748;-79
2023/04/25 11:21:55;;;;;;;8.30;2.35;;;13.40;50.40;;;;;;6074756;23;90384;-79
2023/04/25 11:24:28;;;;;;;10.60;2.45;;;13.80;51.10;;;;;;6076669;23;89947;-79
2023/04/25 11:26:54;;;;;;;9.95;2.17;;;14.00;51.00;;;;;;6070161;23;88423;-79
2023/04/25 11:29:26;;;;;;;11.98;2.13;;;14.40;56.70;;;;;;6094606;23;87138;-78
2023/04/25 11:31:52;;;;;;;7.32;1.30;;;15.20;54.30;;;;;;6093645;23;88436;-79
2023/04/25 11:34:19;;;;;;;5.30;1.40;;;16.10;49.00;;;;;;6095498;23;87761;-79
2023/04/25 11:36:46;;;;;;;4.47;1.30;;;16.80;47.50;;;;;;6094767;23;87316;-79
2023/04/25 11:39:12;;;;;;;4.63;0.93;;;17.20;47.40;;;;;;6094138;23;87720;-78
2023/04/25 11:41:38;;;;;;;6.78;0.90;;;17.30;42.10;;;;;;6069432;23;91868;-78
2023/04/25 11:44:08;;;;;;;9.50;0.70;;;17.30;41.90;;;;;;6099895;23;88235;-80
2023/04/25 11:46:51;;;;;;;3.40;0.80;;;17.10;45.20;;;;;;6027747;23;87965;-79
2023/04/25 11:49:21;;;;;;;3.90;0.80;;;16.90;44.40;;;;;;6143413;22;87445;-80
2023/04/25 11:52:11;;;;;;;4.35;0.90;;;17.00;45.60;;;;;;6135931;22;89868;-79
2023/04/25 11:54:40;;;;;;;5.05;1.15;;;17.20;44.70;;;;;;6234687;22;88275;-80
2023/04/25 11:57:06;;;;;;;3.47;0.90;;;17.90;46.40;;;;;;6228267;22;86961;-79
2023/04/25 11:59:32;;;;;;;5.60;1.15;;;18.80;46.10;;;;;;6230712;22;87454;-79
2023/04/25 12:02:03;;;;;;;2.58;0.95;;;18.80;41.60;;;;;;6225032;22;88026;-80
2023/04/25 12:04:38;;;;;;;7.75;1.20;;;18.60;43.40;;;;;;6201507;22;89915;-81
2023/04/25 12:07:03;;;;;;;3.78;0.85;;;18.50;39.90;;;;;;6160960;22;87448;-77
2023/04/25 12:09:33;;;;;;;5.90;1.10;;;18.40;36.50;;;;;;6161007;22;89115;-80
2023/04/25 12:12:03;;;;;;;10.15;1.08;;;17.90;36.80;;;;;;6204658;22;86845;-79
2023/04/25 12:14:34;;;;;;;4.45;0.77;;;18.00;43.70;;;;;;6200434;22;87910;-80
2023/04/25 12:17:01;;;;;;;4.03;0.98;;;18.30;40.60;;;;;;6176038;22;88319;-80
2023/04/25 12:30:33;;;;;;;6.85;1.20;;;16.30;46.50;;;;;;6153190;22;88865;-81
2023/04/25 12:35:58;;;;;;;8.50;1.92;;;15.50;47.40;;;;;;6164031;22;88991;-80
2023/04/25 12:38:28;;;;;;;9.18;2.15;;;14.70;50.80;;;;;;6109160;23;87251;-80
2023/04/25 12:40:54;;;;;;;6.78;2.03;;;14.10;52.50;;;;;;6106467;23;87116;-78
2023/04/25 12:44:02;;;;;;;5.90;1.33;;;13.70;54.50;;;;;;6084373;23;92431;-80
2023/04/25 12:46:30;;;;;;;6.63;1.98;;;13.40;54.20;;;;;;6018701;23;95548;-81
2023/04/25 12:48:57;;;;;;;7.38;1.67;;;13.30;54.60;;;;;;6044512;23;87109;-79
2023/04/25 12:51:27;;;;;;;5.07;1.55;;;13.30;56.70;;;;;;6128770;22;88299;-80
2023/04/25 12:53:53;;;;;;;5.57;1.75;;;13.30;55.20;;;;;;6203808;22;91424;-78
2023/04/25 12:56:27;;;;;;;5.90;1.67;;;13.40;53.40;;;;;;6225165;22;87307;-81
2023/04/25 12:59:13;;;;;;;;;;;13.40;53.30;;;;;;6055869;23;87572;-80
2023/04/25 13:01:38;;;;;;;4.95;1.65;;;13.60;53.60;;;;;;6039302;23;86880;-80
2023/04/25 13:06:35;;;;;;;8.02;1.25;;;14.60;52.30;;;;;;6215685;22;87531;-78
2023/04/25 13:09:01;;;;;;;8.93;1.63;;;15.40;51.80;;;;;;6219425;22;87927;-77
2023/04/25 13:11:27;;;;;;;3.28;1.10;;;15.90;47.50;;;;;;6217060;22;90823;-78
2023/04/25 13:16:27;;;;;;;6.05;1.65;;;16.90;50.10;;;;;;6192004;22;88142;-80
2023/04/25 13:19:11;;;;;;;5.10;1.85;;;17.70;44.70;;;;;;6228692;22;87479;-81
2023/04/25 13:22:04;;;;;;;8.32;2.20;;;17.90;40.90;;;;;;6207628;22;87178;-79
2023/04/25 13:27:46;;;;;;;7.45;1.75;;;17.00;43.50;;;;;;6183889;22;88207;-81
2023/04/25 13:30:43;;;;;;;8.95;3.53;;;16.40;44.30;;;;;;6179392;22;87558;-81
2023/04/25 13:33:29;;;;;;;6.60;1.50;;;16.20;45.10;;;;;;6055027;23;87376;-80
2023/04/25 13:35:57;;;;;;;4.63;1.10;;;15.90;50.10;;;;;;6042247;23;92132;-80
2023/04/25 13:38:25;;;;;;;6.47;1.42;;;15.70;46.30;;;;;;6045935;23;90042;-80
2023/04/25 13:40:54;;;;;;;6.55;1.88;;;15.20;48.70;;;;;;6020562;23;87407;-80
2023/04/25 13:43:24;;;;;;;5.65;1.73;;;14.70;49.60;;;;;;6049396;23;90123;-80
2023/04/25 13:45:51;;;;;;;8.85;1.65;;;14.40;51.00;;;;;;6047186;23;87583;-80
2023/04/25 13:48:18;;;;;;;5.97;1.40;;;14.10;51.10;;;;;;6043535;23;90943;-80
2023/04/25 13:50:46;;;;;;;6.10;1.65;;;13.90;53.00;;;;;;6052208;23;87738;-81
2023/04/25 13:53:18;;;;;;;6.53;1.98;;;13.90;51.80;;;;;;6053140;23;88722;-79
2023/04/25 13:55:44;;;;;;;11.02;1.88;;;13.80;52.50;;;;;;6055259;23;89542;-80
2023/04/25 13:58:10;;;;;;;8.02;1.88;;;13.80;53.10;;;;;;6133560;22;89685;-80
2023/04/25 14:00:58;;;;;;;6.93;2.00;;;13.90;52.50;;;;;;6232573;22;88507;-81
2023/04/25 14:03:48;;;;;;;10.55;1.95;;;14.60;50.60;;;;;;6155484;22;88161;-81
2023/04/25 14:06:20;;;;;;;7.60;1.90;;;15.80;50.20;;;;;;6086955;23;90014;-80
2023/04/25 14:09:04;;;;;;;8.82;1.70;;;16.60;46.20;;;;;;6046689;23;87517;-80
2023/04/25 14:11:30;;;;;;;5.00;2.00;;;17.40;44.00;;;;;;6044544;23;87080;-80
2023/04/25 14:14:00;;;;;;;6.38;2.20;;;18.00;45.10;;;;;;6048793;23;87399;-81
2023/04/25 14:16:32;;;;;;;5.28;1.58;;;18.20;43.00;;;;;;6048641;23;89676;-80
2023/04/25 14:19:01;;;;;;;6.82;1.50;;;18.70;41.20;;;;;;6046180;23;94019;-80
2023/04/25 14:21:28;;;;;;;9.00;2.00;;;18.90;41.20;;;;;;6050091;23;87281;-80
2023/04/25 14:23:54;;;;;;;4.90;1.17;;;19.10;42.80;;;;;;6049163;23;89189;-80
2023/04/25 14:26:20;;;;;;;4.32;1.17;;;19.20;39.10;;;;;;6026979;23;91789;-80
2023/04/25 14:28:46;;;;;;;7.63;1.25;;;19.20;39.70;;;;;;6046462;23;90853;-80
2023/04/25 14:31:32;;;;;;;6.07;1.08;;;19.20;38.80;;;;;;6072749;23;87372;-79
2023/04/25 14:33:57;;;;;;;6.50;1.33;;;19.60;38.60;;;;;;6070929;23;87488;-80
2023/04/25 14:36:26;;;;;;;4.63;1.20;;;19.70;38.00;;;;;;6085798;23;88630;-81
2023/04/25 14:38:52;;;;;;;3.42;1.10;;;19.20;33.80;;;;;;6085889;23;89822;-80
2023/04/25 14:41:18;;;;;;;3.50;0.95;;;19.00;34.90;;;;;;6147791;22;87053;-80
2023/04/25 14:53:50;;;;;;;3.72;0.90;;;20.00;37.60;;;;;;6154878;22;88432;-80
2023/04/25 14:56:19;;;;;;;10.05;1.10;;;18.90;37.90;;;;;;6194615;22;87859;-80
2023/04/25 14:58:46;;;;;;;3.65;0.88;;;18.30;40.80;;;;;;6159412;22;87617;-80
2023/04/25 15:01:12;;;;;;;2.97;1.00;;;18.00;42.50;;;;;;6171154;22;87596;-80
2023/04/25 15:03:39;;;;;;;1.88;0.70;;;17.60;40.40;;;;;;6111770;22;87656;-81
2023/04/25 15:06:08;;;;;;;4.28;1.00;;;17.30;43.70;;;;;;6138332;22;89668;-80
2023/04/25 15:08:34;;;;;;;4.32;0.90;;;17.30;39.30;;;;;;6137342;22;91523;-80
2023/04/25 15:11:02;;;;;;;4.13;1.30;;;16.80;42.80;;;;;;6141764;22;91344;-80
2023/04/25 15:13:28;;;;;;;4.72;1.05;;;16.50;42.90;;;;;;6140029;22;87238;-80
2023/04/25 15:15:54;;;;;;;4.43;0.90;;;16.30;43.30;;;;;;6157338;22;87531;-80
2023/04/25 15:18:23;;;;;;;3.22;1.00;;;16.20;40.90;;;;;;6152439;22;91365;-78
2023/04/25 15:20:52;;;;;;;5.00;0.88;;;15.80;43.00;;;;;;6151914;22;89744;-80
2023/04/25 15:23:41;;;;;;;6.88;1.13;;;15.70;46.90;;;;;;6116552;23;87493;-81
2023/04/25 15:26:06;;;;;;;4.57;1.13;;;15.60;43.00;;;;;;6145151;22;87885;-78
2023/04/25 15:29:03;;;;;;;4.80;1.00;;;15.70;46.30;;;;;;6154166;22;90934;-80
2023/04/25 15:31:57;;;;;;;8.10;1.33;;;17.20;44.80;;;;;;6063620;23;92637;-81
2023/04/25 15:34:55;;;;;;;8.70;1.08;;;18.30;41.50;;;;;;6041933;23;86771;-81
2023/04/25 15:37:46;;;;;;;3.38;1.00;;;18.40;40.60;;;;;;5980937;23;89607;-82
2023/04/25 15:43:26;;;;;;;5.47;1.48;;;17.50;43.70;;;;;;6195650;22;88332;-81
2023/04/25 15:46:12;;;;;;;4.55;1.05;;;17.80;44.30;;;;;;5990230;23;88289;-81
2023/04/25 15:49:10;;;;;;;7.18;1.00;;;18.40;40.60;;;;;;5994594;23;88844;-82
2023/04/25 15:55:13;;;;;;;5.57;1.08;;;17.30;42.70;;;;;;6188188;22;88937;-81
2023/04/25 15:58:08;;;;;;;6.43;1.65;;;17.30;44.40;;;;;;6064577;23;88899;-80
2023/04/25 16:14:09;;;;;;;4.68;0.98;;;15.20;45.50;;;;;;6246839;22;88136;-81
2023/04/25 16:17:32;;;;;;;5.20;1.33;;;14.70;46.40;;;;;;6078951;23;92067;-82
2023/04/25 16:20:00;;;;;;;4.68;1.70;;;14.40;49.20;;;;;;6069644;23;86796;-83
2023/04/25 16:22:46;;;;;;;10.00;1.55;;;14.20;49.30;;;;;;6063951;23;86646;-81
2023/04/25 16:25:14;;;;;;;9.30;2.08;;;14.10;48.90;;;;;;6062682;23;86779;-81
2023/04/25 16:27:43;;;;;;;3.65;1.10;;;13.80;50.30;;;;;;6048614;23;86635;-81
2023/04/25 16:30:25;;;;;;;9.60;1.30;;;13.60;50.10;;;;;;6020439;23;86499;-82
2023/04/25 16:32:56;;;;;;;6.68;1.30;;;13.50;50.90;;;;;;6033473;23;88483;-81
2023/04/25 16:35:45;;;;;;;4.82;1.58;;;13.40;51.20;;;;;;6007927;23;87145;-82
2023/04/25 16:38:19;;;;;;;7.75;1.42;;;13.40;51.10;;;;;;5897025;23;89357;-82
2023/04/25 16:54:48;;;;;;;5.05;1.13;;;13.90;47.50;;;;;;5983669;23;86634;-82
2023/04/25 16:57:36;;;;;;;4.88;1.05;;;14.80;46.80;;;;;;5976390;23;87564;-82
2023/04/25 17:00:04;;;;;;;3.50;0.80;;;15.50;45.80;;;;;;5992855;23;89132;-81
2023/04/25 17:02:30;;;;;;;8.13;1.30;;;15.10;44.50;;;;;;6062437;23;88107;-78
2023/04/25 17:04:55;;;;;;;8.27;1.23;;;14.40;46.20;;;;;;6040218;23;87294;-78
2023/04/25 17:07:23;;;;;;;6.35;1.45;;;13.90;47.90;;;;;;6116200;23;87537;-78
2023/04/25 17:09:50;;;;;;;6.30;1.05;;;13.70;48.60;;;;;;6122520;23;89014;-78
2023/04/25 17:12:16;;;;;;;6.18;1.52;;;13.50;47.70;;;;;;6123072;23;88185;-78
2023/04/25 17:14:42;;;;;;;10.18;1.27;;;13.40;48.50;;;;;;6123044;23;87754;-78
2023/04/25 17:17:08;;;;;;;5.10;1.00;;;13.60;48.30;;;;;;6122390;23;87965;-78
2023/04/25 17:19:34;;;;;;;7.68;0.95;;;13.90;48.30;;;;;;6122760;23;88061;-78
2023/04/25 17:25:27;;;;;;;5.75;1.10;;;14.10;46.90;;;;;;6123182;23;87445;-78
2023/04/25 17:27:53;;;;;;;7.90;1.30;;;14.00;46.70;;;;;;6122727;22;88242;-78